Time;durP1;ratioP1;P1;durP2;ratioP2;P2;SDS_P1;SDS_P2;PMS_P1;PMS_P2;Temp;Humidity;BMP_temperature;BMP_pressure;BME280_temperature;BME280_humidity;BME280_pressure;Samples;Min_cycle;Max_cycle;Signal;HPM_P1;HPM_P2
2022/11/17 00:00:09;;;;;;;20.07;13.43;;;;;;;-148.82;100.00;60434.72;4983573;28;20262;-67
2022/11/17 00:02:37;;;;;;;20.70;13.50;;;;;;;-148.82;100.00;60434.72;5006817;28;20203;-68
2022/11/17 00:05:07;;;;;;;18.70;13.70;;;;;;;-148.82;100.00;60434.72;5011015;28;20479;-67
2022/11/17 00:07:36;;;;;;;19.90;13.30;;;;;;;-148.82;100.00;60434.72;4968958;28;20556;-67
2022/11/17 00:10:05;;;;;;;23.13;14.43;;;;;;;-148.82;100.00;60434.72;5008572;28;20572;-66
2022/11/17 00:15:19;;;;;;;15.73;11.67;;;;;;;-148.82;100.00;60434.72;5010453;28;20199;-67
2022/11/17 00:17:47;;;;;;;17.07;11.83;;;;;;;-148.82;100.00;60434.72;5009597;28;20793;-67
2022/11/17 00:23:06;;;;;;;14.37;12.07;;;;;;;-148.82;100.00;60434.72;4983173;28;20198;-67
2022/11/17 00:25:34;;;;;;;21.43;12.33;;;;;;;-148.82;100.00;60434.72;5010993;28;20211;-69
2022/11/17 00:28:02;;;;;;;16.10;11.10;;;;;;;-148.82;100.00;60434.72;4956623;28;20237;-66
2022/11/17 00:36:04;;;;;;;16.50;11.50;;;;;;;-148.82;100.00;60434.72;5005910;28;20400;-66
2022/11/17 00:38:32;;;;;;;19.67;12.00;;;;;;;-148.82;100.00;60434.72;4984080;28;20753;-67
2022/11/17 00:41:00;;;;;;;17.70;12.80;;;;;;;-148.82;100.00;60434.72;5007065;28;21039;-68
2022/11/17 00:43:28;;;;;;;18.03;12.17;;;;;;;-148.82;100.00;60434.72;4962768;28;20211;-67
2022/11/17 00:45:56;;;;;;;21.20;13.90;;;;;;;-148.82;100.00;60434.72;5006288;28;20199;-68
2022/11/17 00:48:24;;;;;;;18.60;12.30;;;;;;;-148.82;100.00;60434.72;5010085;28;20858;-68
2022/11/17 00:50:53;;;;;;;18.23;14.43;;;;;;;-148.82;100.00;60434.72;5008861;28;20242;-69
2022/11/17 00:53:22;;;;;;;13.47;10.20;;;;;;;-148.82;100.00;60434.72;5008268;28;20618;-67
2022/11/17 00:55:50;;;;;;;15.00;10.77;;;;;;;-148.82;100.00;60434.72;4982611;28;20207;-67
2022/11/17 00:58:18;;;;;;;14.30;10.73;;;;;;;-148.82;100.00;60434.72;4962811;28;20496;-68
2022/11/17 01:00:48;;;;;;;11.53;9.87;;;;;;;-148.82;100.00;60434.72;5008664;28;20806;-67
2022/11/17 01:03:16;;;;;;;11.33;10.23;;;;;;;-148.82;100.00;60434.72;5006412;28;20207;-67
2022/11/17 01:05:44;;;;;;;12.83;11.33;;;;;;;-148.82;100.00;60434.72;5010158;28;20679;-68
2022/11/17 01:08:13;;;;;;;14.67;11.10;;;;;;;-148.82;100.00;60434.72;5007794;28;20997;-69
2022/11/17 01:10:42;;;;;;;15.47;12.27;;;;;;;-148.82;100.00;60434.72;4982866;28;20452;-69
2022/11/17 01:13:10;;;;;;;14.63;11.20;;;;;;;-148.82;100.00;60434.72;4958188;28;21482;-68
2022/11/17 01:15:39;;;;;;;14.73;10.90;;;;;;;-148.82;100.00;60434.72;5006582;28;20286;-67
2022/11/17 01:18:07;;;;;;;13.67;10.90;;;;;;;-148.82;100.00;60434.72;5007071;28;21026;-69
2022/11/17 01:20:35;;;;;;;12.87;10.23;;;;;;;-148.82;100.00;60434.72;5009487;28;20380;-69
2022/11/17 01:23:03;;;;;;;18.10;11.60;;;;;;;-148.82;100.00;60434.72;5006815;28;20203;-68
2022/11/17 01:25:31;;;;;;;15.23;11.40;;;;;;;-148.82;100.00;60434.72;4984798;28;20203;-68
2022/11/17 01:28:01;;;;;;;14.47;10.53;;;;;;;-148.82;100.00;60434.72;4963462;28;20230;-67
2022/11/17 01:30:29;;;;;;;16.27;10.83;;;;;;;-148.82;100.00;60434.72;5008155;28;20234;-68
2022/11/17 01:32:57;;;;;;;16.10;11.30;;;;;;;-148.82;100.00;60434.72;5006680;28;20762;-68
2022/11/17 01:35:26;;;;;;;17.97;12.03;;;;;;;-148.82;100.00;60434.72;5010242;28;20296;-69
2022/11/17 01:37:54;;;;;;;17.47;12.70;;;;;;;-148.82;100.00;60434.72;5006806;28;20218;-68
2022/11/17 01:40:22;;;;;;;17.93;12.77;;;;;;;-148.82;100.00;60434.72;4983475;28;20816;-69
2022/11/17 01:42:50;;;;;;;17.60;11.47;;;;;;;-148.82;100.00;60434.72;5007520;28;20206;-66
2022/11/17 01:45:21;;;;;;;19.53;13.37;;;;;;;-148.82;100.00;60434.72;4962849;28;20328;-68
2022/11/17 01:47:50;;;;;;;23.17;13.50;;;;;;;-148.82;100.00;60434.72;5006283;28;20522;-67
2022/11/17 01:50:25;;;;;;;21.63;14.27;;;;;;;-148.82;100.00;60434.72;5008004;28;20435;-66
2022/11/17 01:52:56;;;;;;;21.47;14.33;;;;;;;-148.82;100.00;60434.72;5008480;28;20210;-67
2022/11/17 01:55:26;;;;;;;24.13;15.03;;;;;;;-148.82;100.00;60434.72;4982161;28;20891;-66
2022/11/17 01:57:58;;;;;;;22.77;15.67;;;;;;;-148.82;100.00;60434.72;5007032;28;20210;-67
2022/11/17 02:00:27;;;;;;;24.10;16.27;;;;;;;-148.82;100.00;60434.72;4961441;28;20246;-68
2022/11/17 02:02:56;;;;;;;26.20;16.20;;;;;;;-148.82;100.00;60434.72;5006641;28;20219;-69
2022/11/17 02:05:32;;;;;;;23.87;15.57;;;;;;;-148.82;100.00;60434.72;5013296;28;20556;-68
2022/11/17 02:08:03;;;;;;;26.70;16.43;;;;;;;-148.82;100.00;60434.72;5007138;28;20203;-68
2022/11/17 02:10:32;;;;;;;26.37;15.63;;;;;;;-148.82;100.00;60434.72;5007451;28;20444;-69
2022/11/17 02:13:00;;;;;;;24.07;15.83;;;;;;;-148.82;100.00;60434.72;4976560;28;20207;-68
2022/11/17 02:19:18;;;;;;;23.50;16.50;;;;;;;-148.82;100.00;60434.72;4949557;28;20808;-68
2022/11/17 02:22:08;;;;;;;25.17;16.47;;;;;;;-148.82;100.00;60434.72;5007134;28;20249;-68
2022/11/17 02:24:55;;;;;;;28.27;18.13;;;;;;;-148.82;100.00;60434.72;4995936;28;20304;-69
2022/11/17 02:27:48;;;;;;;22.77;17.17;;;;;;;-148.82;100.00;60434.72;5005276;28;20307;-66
2022/11/17 02:30:18;;;;;;;26.87;18.27;;;;;;;-148.82;100.00;60434.72;4989416;28;20231;-66
2022/11/17 02:32:58;;;;;;;24.53;16.77;;;;;;;-148.82;100.00;60434.72;5008197;28;20214;-68
2022/11/17 02:35:28;;;;;;;26.83;17.10;;;;;;;-148.82;100.00;60434.72;4957494;28;20211;-68
2022/11/17 02:38:04;;;;;;;25.37;18.20;;;;;;;-148.82;100.00;60434.72;5009013;28;20500;-69
2022/11/17 02:40:34;;;;;;;34.57;19.17;;;;;;;-148.82;100.00;60434.72;5003875;28;20231;-69
2022/11/17 02:45:57;;;;;;;25.73;18.73;;;;;;;-148.82;100.00;60434.72;5008797;28;20206;-68
2022/11/17 02:48:31;;;;;;;26.30;19.03;;;;;;;-148.82;100.00;60434.72;4979234;28;20306;-68
2022/11/17 02:51:00;;;;;;;27.27;19.27;;;;;;;-148.82;100.00;60434.72;4959086;28;20230;-67
2022/11/17 02:53:29;;;;;;;29.73;19.00;;;;;;;-148.82;100.00;60434.72;5003891;28;20203;-68
2022/11/17 02:55:59;;;;;;;25.67;18.40;;;;;;;-148.82;100.00;60434.72;5007139;28;20265;-69
2022/11/17 02:58:29;;;;;;;24.23;19.67;;;;;;;-148.82;100.00;60434.72;5005376;28;20405;-69
2022/11/17 03:01:11;;;;;;;27.20;18.80;;;;;;;-148.82;100.00;60434.72;5008533;28;20653;-67
2022/11/17 03:03:47;;;;;;;25.63;18.27;;;;;;;-148.82;100.00;60434.72;4982693;28;20310;-68
2022/11/17 03:06:21;;;;;;;27.93;20.97;;;;;;;-148.82;100.00;60434.72;4958840;28;20286;-65
2022/11/17 03:08:59;;;;;;;29.60;19.63;;;;;;;-148.82;100.00;60434.72;5008313;28;20590;-68
2022/11/17 03:11:32;;;;;;;30.27;18.60;;;;;;;-148.82;100.00;60434.72;5004024;28;20399;-68
2022/11/17 03:14:07;;;;;;;29.70;18.57;;;;;;;-148.82;100.00;60434.72;5007302;28;20371;-68
2022/11/17 03:16:37;;;;;;;23.40;18.20;;;;;;;-148.82;100.00;60434.72;5006673;28;20731;-66
2022/11/17 03:19:09;;;;;;;24.90;18.23;;;;;;;-148.82;100.00;60434.72;4979977;28;20437;-66
2022/11/17 03:21:41;;;;;;;24.50;17.87;;;;;;;-148.82;100.00;60434.72;4961117;28;20431;-66
2022/11/17 03:24:14;;;;;;;26.10;18.80;;;;;;;-148.82;100.00;60434.72;5006359;28;20820;-67
2022/11/17 03:26:44;;;;;;;22.60;17.83;;;;;;;-148.82;100.00;60434.72;5007805;28;20202;-67
2022/11/17 03:29:16;;;;;;;28.07;19.50;;;;;;;-148.82;100.00;60434.72;5005953;28;20202;-66
2022/11/17 03:31:45;;;;;;;23.27;17.70;;;;;;;-148.82;100.00;60434.72;5007062;28;20423;-67
2022/11/17 03:34:16;;;;;;;25.00;16.83;;;;;;;-148.82;100.00;60434.72;4981430;28;20207;-68
2022/11/17 03:36:49;;;;;;;22.30;16.77;;;;;;;-148.82;100.00;60434.72;4963395;28;20557;-66
2022/11/17 03:39:22;;;;;;;19.47;16.10;;;;;;;-148.82;100.00;60434.72;5004827;28;20206;-67
2022/11/17 03:41:54;;;;;;;23.03;15.73;;;;;;;-148.82;100.00;60434.72;5007580;28;20586;-68
2022/11/17 03:44:25;;;;;;;19.33;15.47;;;;;;;-148.82;100.00;60434.72;5005452;28;20202;-66
2022/11/17 03:46:54;;;;;;;21.20;17.03;;;;;;;-148.82;100.00;60434.72;5008825;28;20202;-67
2022/11/17 03:49:27;;;;;;;22.90;16.63;;;;;;;-148.82;100.00;60434.72;4978679;28;20237;-66
2022/11/17 03:51:56;;;;;;;21.70;16.50;;;;;;;-148.82;100.00;60434.72;5007187;28;20924;-69
2022/11/17 03:54:24;;;;;;;19.30;15.17;;;;;;;-148.82;100.00;60434.72;4956321;28;20363;-68
2022/11/17 03:56:56;;;;;;;21.10;16.50;;;;;;;-148.82;100.00;60434.72;5009436;28;20838;-67
2022/11/17 03:59:30;;;;;;;16.87;14.80;;;;;;;-148.82;100.00;60434.72;4995690;28;20203;-68
2022/11/17 04:01:58;;;;;;;19.10;14.37;;;;;;;-148.82;100.00;60434.72;5008540;28;20230;-69
2022/11/17 04:05:04;;;;;;;24.13;17.13;;;;;;;-148.82;100.00;60434.72;4977506;28;20423;-67
2022/11/17 04:07:16;;;;;;;18.30;14.93;;;;;;;-148.82;100.00;60434.72;4973716;28;20208;-66
2022/11/17 04:09:45;;;;;;;17.57;14.03;;;;;;;-148.82;100.00;60434.72;4997415;28;20215;-66
2022/11/17 04:17:46;;;;;;;20.50;15.20;;;;;;;-148.82;100.00;60434.72;5011069;28;20295;-68
2022/11/17 04:20:15;;;;;;;18.90;14.90;;;;;;;-148.82;100.00;60434.72;4988830;28;20241;-67
2022/11/17 04:22:43;;;;;;;17.13;14.37;;;;;;;-148.82;100.00;60434.72;4976715;28;20207;-67
2022/11/17 04:28:35;;;;;;;17.47;14.37;;;;;;;-148.82;100.00;60434.72;5000850;28;20211;-68
2022/11/17 04:30:44;;;;;;;20.00;13.70;;;;;;;-148.82;100.00;60434.72;4977354;28;20227;-68
2022/11/17 04:33:12;;;;;;;15.87;13.17;;;;;;;-148.82;100.00;60434.72;4982285;28;20567;-67
2022/11/17 04:35:40;;;;;;;15.83;13.37;;;;;;;-148.82;100.00;60434.72;5007994;28;20255;-67
2022/11/17 04:38:09;;;;;;;18.87;13.50;;;;;;;-148.82;100.00;60434.72;5009335;28;20223;-67
2022/11/17 04:41:52;;;;;;;16.87;12.73;;;;;;;-148.82;100.00;60434.72;5007285;28;20578;-67
2022/11/17 04:43:24;;;;;;;17.83;13.43;;;;;;;-148.82;100.00;60434.72;4960964;28;20218;-67
2022/11/17 04:45:58;;;;;;;18.57;13.07;;;;;;;-148.82;100.00;60434.72;5009055;28;20594;-67
2022/11/17 04:48:27;;;;;;;16.67;13.17;;;;;;;-148.82;100.00;60434.72;4951908;28;20213;-67
2022/11/17 04:50:56;;;;;;;16.23;13.40;;;;;;;-148.82;100.00;60434.72;5008930;28;20238;-67
2022/11/17 04:53:24;;;;;;;16.97;12.57;;;;;;;-148.82;100.00;60434.72;4983759;28;21481;-66
2022/11/17 04:55:52;;;;;;;24.67;14.53;;;;;;;-148.82;100.00;60434.72;5008833;28;20203;-66
2022/11/17 04:58:21;;;;;;;18.37;13.77;;;;;;;-148.82;100.00;60434.72;4961913;28;20565;-68
2022/11/17 05:00:49;;;;;;;20.57;14.60;;;;;;;-148.82;100.00;60434.72;5009039;28;20242;-68
2022/11/17 05:03:18;;;;;;;19.57;13.83;;;;;;;-148.82;100.00;60434.72;5008062;28;20312;-67
2022/11/17 05:05:47;;;;;;;21.40;13.93;;;;;;;-148.82;100.00;60434.72;4981832;28;20219;-68
2022/11/17 05:08:15;;;;;;;18.57;12.97;;;;;;;-148.82;100.00;60434.72;4980431;28;20528;-67
2022/11/17 05:13:30;;;;;;;18.50;13.40;;;;;;;-148.82;100.00;60434.72;4960833;28;20319;-67
2022/11/17 05:18:45;;;;;;;16.90;12.60;;;;;;;-148.82;100.00;60434.72;5011549;28;20714;-68
2022/11/17 05:21:14;;;;;;;17.20;13.10;;;;;;;-148.82;100.00;60434.72;4988746;28;20966;-67
2022/11/17 05:23:53;;;;;;;15.67;12.90;;;;;;;-148.82;100.00;60434.72;5010840;28;21335;-66
2022/11/17 05:26:24;;;;;;;17.00;12.37;;;;;;;-148.82;100.00;60434.72;4972094;28;20202;-67
2022/11/17 05:28:54;;;;;;;15.00;12.23;;;;;;;-148.82;100.00;60434.72;4971641;28;20359;-67
2022/11/17 05:31:23;;;;;;;17.47;12.10;;;;;;;-148.82;100.00;60434.72;5008300;28;20230;-67
2022/11/17 05:33:53;;;;;;;16.70;13.17;;;;;;;-148.82;100.00;60434.72;5007223;28;20415;-67
2022/11/17 05:36:22;;;;;;;12.93;10.97;;;;;;;-148.82;100.00;60434.72;4980209;28;20591;-68
2022/11/17 05:38:50;;;;;;;15.47;11.37;;;;;;;-148.82;100.00;60434.72;5007698;28;20710;-67
2022/11/17 05:41:19;;;;;;;12.90;11.17;;;;;;;-148.82;100.00;60434.72;4981930;28;20223;-68
2022/11/17 05:43:49;;;;;;;13.77;11.37;;;;;;;-148.82;100.00;60434.72;4955780;28;20421;-67
2022/11/17 05:46:17;;;;;;;15.10;11.97;;;;;;;-148.82;100.00;60434.72;5007516;28;22743;-68
2022/11/17 05:48:47;;;;;;;13.40;10.90;;;;;;;-148.82;100.00;60434.72;5007794;28;20213;-68
2022/11/17 05:51:17;;;;;;;15.43;11.37;;;;;;;-148.82;100.00;60434.72;4985947;28;20284;-68
2022/11/17 05:53:46;;;;;;;13.17;11.60;;;;;;;-148.82;100.00;60434.72;5008026;28;20213;-68
2022/11/17 05:56:24;;;;;;;13.50;11.27;;;;;;;-148.82;100.00;60434.72;4985246;28;20210;-68
2022/11/17 05:58:54;;;;;;;14.53;11.53;;;;;;;-148.82;100.00;60434.72;4953111;28;21516;-68
2022/11/17 06:01:23;;;;;;;14.87;11.23;;;;;;;-148.82;100.00;60434.72;4972925;28;20226;-68
2022/11/17 06:03:53;;;;;;;12.80;11.27;;;;;;;-148.82;100.00;60434.72;5008432;28;20488;-68
2022/11/17 06:06:23;;;;;;;11.77;10.63;;;;;;;-148.82;100.00;60434.72;4984413;28;20305;-66
2022/11/17 06:08:52;;;;;;;13.03;11.33;;;;;;;-148.82;100.00;60434.72;5010650;28;21651;-67
2022/11/17 06:11:20;;;;;;;12.37;11.07;;;;;;;-148.82;100.00;60434.72;5005287;28;20233;-65
2022/11/17 06:13:48;;;;;;;13.03;11.23;;;;;;;-148.82;100.00;60434.72;4956872;28;20207;-67
2022/11/17 06:16:19;;;;;;;15.13;11.30;;;;;;;-148.82;100.00;60434.72;5005165;28;20863;-66
2022/11/17 06:18:50;;;;;;;14.67;12.13;;;;;;;-148.82;100.00;60434.72;5007298;28;20213;-66
2022/11/17 06:21:19;;;;;;;14.77;11.93;;;;;;;-148.82;100.00;60434.72;4988824;28;20591;-66
2022/11/17 06:23:50;;;;;;;40.40;28.47;;;;;;;-148.82;100.00;60434.72;5002321;28;20325;-67
2022/11/17 06:26:18;;;;;;;22.20;16.70;;;;;;;-148.82;100.00;60434.72;5005815;28;20570;-68
2022/11/17 06:28:48;;;;;;;16.30;13.97;;;;;;;-148.82;100.00;60434.72;5007767;28;20233;-69
2022/11/17 06:31:17;;;;;;;14.20;12.47;;;;;;;-148.82;100.00;60434.72;4955584;28;20223;-69
2022/11/17 06:33:45;;;;;;;14.47;10.97;;;;;;;-148.82;100.00;60434.72;4952849;28;20457;-68
2022/11/17 06:36:14;;;;;;;13.23;11.23;;;;;;;-148.82;100.00;60434.72;5007018;28;20215;-67
2022/11/17 06:38:42;;;;;;;13.10;11.77;;;;;;;-148.82;100.00;60434.72;4993066;28;20238;-67
2022/11/17 06:41:12;;;;;;;16.27;13.27;;;;;;;-148.82;100.00;60434.72;5007379;28;20408;-67
2022/11/17 06:43:40;;;;;;;14.40;11.87;;;;;;;-148.82;100.00;60434.72;4992209;28;20768;-67
2022/11/17 06:46:08;;;;;;;13.93;12.43;;;;;;;-148.82;100.00;60434.72;5000825;28;20216;-67
2022/11/17 06:48:36;;;;;;;16.00;12.73;;;;;;;-148.82;100.00;60434.72;4956528;28;20226;-67
2022/11/17 06:51:06;;;;;;;14.07;12.60;;;;;;;-148.82;100.00;60434.72;5005039;28;20547;-68
2022/11/17 06:53:35;;;;;;;15.03;13.13;;;;;;;-148.82;100.00;60434.72;5006597;28;20779;-68
2022/11/17 06:56:06;;;;;;;15.60;12.80;;;;;;;-148.82;100.00;60434.72;5006336;28;20207;-68
2022/11/17 06:58:38;;;;;;;17.10;14.00;;;;;;;-148.82;100.00;60434.72;5002065;28;20336;-67
2022/11/17 07:01:08;;;;;;;14.67;13.17;;;;;;;-148.82;100.00;60434.72;4996857;28;20381;-69
2022/11/17 07:03:41;;;;;;;14.67;11.93;;;;;;;-148.82;100.00;60434.72;4985750;28;20836;-68
2022/11/17 07:06:11;;;;;;;24.27;19.23;;;;;;;-148.82;100.00;60434.72;4996253;28;20202;-68
2022/11/17 07:08:39;;;;;;;15.83;14.03;;;;;;;-148.82;100.00;60434.72;5005223;28;20244;-67
2022/11/17 07:11:08;;;;;;;17.37;13.67;;;;;;;-148.82;100.00;60434.72;5007382;28;21025;-68
2022/11/17 07:13:38;;;;;;;18.07;14.67;;;;;;;-148.82;100.00;60434.72;5006242;28;20227;-67
2022/11/17 07:16:09;;;;;;;15.70;14.07;;;;;;;-148.82;100.00;60434.72;4980024;28;20922;-66
2022/11/17 07:18:50;;;;;;;19.27;13.57;;;;;;;-148.82;100.00;60434.72;4982897;28;20488;-66
2022/11/17 07:21:18;;;;;;;19.67;14.87;;;;;;;-148.82;100.00;60434.72;5004961;28;20303;-67
2022/11/17 07:23:46;;;;;;;17.00;14.00;;;;;;;-148.82;100.00;60434.72;5004156;28;20551;-66
2022/11/17 07:26:15;;;;;;;20.20;16.17;;;;;;;-148.82;100.00;60434.72;5007763;28;20204;-68
2022/11/17 07:28:44;;;;;;;19.07;14.90;;;;;;;-148.82;100.00;60434.72;5004880;28;20209;-67
2022/11/17 07:31:12;;;;;;;17.40;13.97;;;;;;;-148.82;100.00;60434.72;4983114;28;20385;-66
2022/11/17 07:33:41;;;;;;;17.40;14.40;;;;;;;-148.82;100.00;60434.72;5004026;28;20752;-68
2022/11/17 07:36:10;;;;;;;18.67;13.33;;;;;;;-148.82;100.00;60434.72;4958710;28;20215;-67
2022/11/17 07:38:40;;;;;;;18.87;13.63;;;;;;;-148.82;100.00;60434.72;5003420;28;20203;-68
2022/11/17 07:41:10;;;;;;;20.90;14.83;;;;;;;-148.82;100.00;60434.72;5007307;28;20231;-68
2022/11/17 07:43:39;;;;;;;36.10;27.70;;;;;;;-148.82;100.00;60434.72;5007044;28;20474;-67
2022/11/17 07:46:11;;;;;;;18.00;14.77;;;;;;;-148.82;100.00;60434.72;4981766;28;20476;-67
2022/11/17 07:48:39;;;;;;;20.17;14.93;;;;;;;-148.82;100.00;60434.72;5010402;28;20246;-67
2022/11/17 07:51:08;;;;;;;14.47;11.90;;;;;;;-148.82;100.00;60434.72;4962834;28;20468;-67
2022/11/17 07:53:36;;;;;;;14.73;11.87;;;;;;;-148.82;100.00;60434.72;5007257;28;20229;-66
2022/11/17 07:56:06;;;;;;;14.97;11.80;;;;;;;-148.82;100.00;60434.72;5011206;28;20875;-67
2022/11/17 07:58:34;;;;;;;19.73;13.13;;;;;;;-148.82;100.00;60434.72;5008949;28;20195;-66
2022/11/17 08:01:05;;;;;;;16.70;12.80;;;;;;;-148.82;100.00;60434.72;4984340;28;21154;-66
2022/11/17 08:03:34;;;;;;;17.73;12.83;;;;;;;-148.82;100.00;60434.72;5010262;28;20565;-67
2022/11/17 08:06:03;;;;;;;14.53;12.40;;;;;;;-148.82;100.00;60434.72;4961125;28;22365;-67
2022/11/17 08:08:32;;;;;;;18.10;13.37;;;;;;;-148.82;100.00;60434.72;5009457;28;20481;-67
2022/11/17 08:11:02;;;;;;;14.93;12.17;;;;;;;-148.82;100.00;60434.72;5009719;28;20810;-67
2022/11/17 08:13:31;;;;;;;12.60;10.37;;;;;;;-148.82;100.00;60434.72;5011125;28;20400;-68
2022/11/17 08:15:59;;;;;;;12.80;10.67;;;;;;;-148.82;100.00;60434.72;4982803;28;20731;-69
2022/11/17 08:18:28;;;;;;;11.67;9.37;;;;;;;-148.82;100.00;60434.72;5010654;28;20207;-69
2022/11/17 08:21:03;;;;;;;10.43;9.00;;;;;;;-148.82;100.00;60434.72;5008366;28;20345;-68
2022/11/17 08:23:31;;;;;;;12.27;9.47;;;;;;;-148.82;100.00;60434.72;4963564;28;20577;-68
2022/11/17 08:26:00;;;;;;;26.73;19.53;;;;;;;-148.82;100.00;60434.72;5009073;28;20861;-69
2022/11/17 08:28:28;;;;;;;14.30;9.33;;;;;;;-148.82;100.00;60434.72;5009444;28;20414;-68
2022/11/17 08:30:56;;;;;;;11.20;8.60;;;;;;;-148.82;100.00;60434.72;5009408;28;20745;-68
2022/11/17 08:33:24;;;;;;;12.90;10.10;;;;;;;-148.82;100.00;60434.72;4982927;28;20234;-66
2022/11/17 08:35:53;;;;;;;11.60;9.80;;;;;;;-148.82;100.00;60434.72;5008638;28;20408;-68
2022/11/17 08:38:27;;;;;;;10.77;8.07;;;;;;;-148.82;100.00;60434.72;4960325;28;20230;-67
2022/11/17 08:40:56;;;;;;;10.73;8.87;;;;;;;-148.82;100.00;60434.72;4954916;28;20308;-68
2022/11/17 08:43:24;;;;;;;9.63;8.63;;;;;;;-148.82;100.00;60434.72;5009279;28;20218;-68
2022/11/17 08:45:52;;;;;;;14.73;12.27;;;;;;;-148.82;100.00;60434.72;5010409;28;20214;-67
2022/11/17 08:48:20;;;;;;;16.27;12.63;;;;;;;-148.82;100.00;60434.72;4994906;28;20710;-67
2022/11/17 08:50:49;;;;;;;13.07;9.63;;;;;;;-148.82;100.00;60434.72;5010587;28;20421;-68
2022/11/17 08:53:19;;;;;;;10.53;9.23;;;;;;;-148.82;100.00;60434.72;4980642;28;20246;-67
2022/11/17 08:55:48;;;;;;;11.27;8.97;;;;;;;-148.82;100.00;60434.72;4958877;28;20661;-68
2022/11/17 08:58:16;;;;;;;10.17;9.07;;;;;;;-148.82;100.00;60434.72;5006468;28;20483;-68
2022/11/17 09:00:46;;;;;;;10.03;8.97;;;;;;;-148.82;100.00;60434.72;5011345;28;20234;-67
2022/11/17 09:03:15;;;;;;;10.97;9.03;;;;;;;-148.82;100.00;60434.72;5008585;28;20416;-67
2022/11/17 09:05:45;;;;;;;10.93;8.73;;;;;;;-148.82;100.00;60434.72;5010242;28;20203;-67
2022/11/17 09:08:14;;;;;;;9.87;8.70;;;;;;;-148.82;100.00;60434.72;5007112;28;20211;-67
2022/11/17 09:11:06;;;;;;;10.60;9.50;;;;;;;-148.82;100.00;60434.72;4931706;28;20234;-67
2022/11/17 09:13:34;;;;;;;9.60;8.60;;;;;;;-148.82;100.00;60434.72;5008511;28;20234;-68
2022/11/17 09:16:03;;;;;;;11.10;9.03;;;;;;;-148.82;100.00;60434.72;5006089;28;20199;-67
2022/11/17 09:18:31;;;;;;;10.47;9.07;;;;;;;-148.82;100.00;60434.72;5010302;28;20207;-67
2022/11/17 09:21:01;;;;;;;12.50;9.87;;;;;;;-148.82;100.00;60434.72;5006788;28;20676;-68
2022/11/17 09:23:30;;;;;;;9.93;8.73;;;;;;;-148.82;100.00;60434.72;5009463;28;20741;-67
2022/11/17 09:25:59;;;;;;;9.83;8.83;;;;;;;-148.82;100.00;60434.72;4947598;28;20289;-66
2022/11/17 09:28:29;;;;;;;11.70;10.23;;;;;;;-148.82;100.00;60434.72;5003786;28;20245;-68
2022/11/17 09:30:57;;;;;;;10.63;9.53;;;;;;;-148.82;100.00;60434.72;5006863;28;20238;-68
2022/11/17 09:33:28;;;;;;;11.37;9.87;;;;;;;-148.82;100.00;60434.72;5010526;28;20728;-67
2022/11/17 09:35:57;;;;;;;12.50;10.17;;;;;;;-148.82;100.00;60434.72;5008129;28;20951;-68
2022/11/17 09:38:25;;;;;;;10.03;9.03;;;;;;;-148.82;100.00;60434.72;5009766;28;20222;-67
2022/11/17 09:40:57;;;;;;;14.00;12.63;;;;;;;-148.82;100.00;60434.72;4959442;28;20235;-67
2022/11/17 09:43:32;;;;;;;11.03;9.93;;;;;;;-148.82;100.00;60434.72;4999277;28;20532;-67
2022/11/17 09:46:05;;;;;;;13.27;10.43;;;;;;;-148.82;100.00;60434.72;5006168;28;20509;-67
2022/11/17 09:48:41;;;;;;;12.30;10.53;;;;;;;-148.82;100.00;60434.72;5009383;28;20482;-68
2022/11/17 09:51:12;;;;;;;10.43;9.43;;;;;;;-148.82;100.00;60434.72;5005102;28;20596;-67
2022/11/17 09:53:44;;;;;;;11.10;9.87;;;;;;;-148.82;100.00;60434.72;5008887;28;20334;-68
2022/11/17 09:56:13;;;;;;;11.03;9.87;;;;;;;-148.82;100.00;60434.72;4980058;28;20814;-68
2022/11/17 09:58:47;;;;;;;10.90;9.80;;;;;;;-148.82;100.00;60434.72;4961223;28;21560;-69
2022/11/17 10:01:17;;;;;;;10.70;9.70;;;;;;;-148.82;100.00;60434.72;5006840;28;20488;-68
2022/11/17 10:03:47;;;;;;;11.13;9.90;;;;;;;-148.82;100.00;60434.72;5008934;28;20211;-68
2022/11/17 10:06:19;;;;;;;11.70;10.57;;;;;;;-148.82;100.00;60434.72;5007401;28;20383;-69
2022/11/17 10:08:57;;;;;;;11.20;10.10;;;;;;;-148.82;100.00;60434.72;5007343;28;20286;-68
2022/11/17 10:11:35;;;;;;;10.87;9.87;;;;;;;-148.82;100.00;60434.72;4980764;28;20372;-69
2022/11/17 10:14:22;;;;;;;10.63;9.57;;;;;;;-148.82;100.00;60434.72;4954241;28;20859;-68
2022/11/17 10:16:52;;;;;;;11.33;10.23;;;;;;;-148.82;100.00;60434.72;5008845;28;20203;-68
2022/11/17 10:19:22;;;;;;;10.33;8.37;;;;;;;-148.82;100.00;60434.72;5006699;28;20203;-69
2022/11/17 10:21:53;;;;;;;9.37;8.47;;;;;;;-148.82;100.00;60434.72;5007388;28;20231;-68
2022/11/17 10:24:35;;;;;;;10.20;9.23;;;;;;;-148.82;100.00;60434.72;5006985;28;20215;-69
2022/11/17 10:27:05;;;;;;;12.87;10.23;;;;;;;-148.82;100.00;60434.72;4982327;28;20198;-69
2022/11/17 10:29:35;;;;;;;10.70;9.50;;;;;;;-148.82;100.00;60434.72;4960490;28;20202;-69
2022/11/17 10:32:05;;;;;;;10.50;9.50;;;;;;;-148.82;100.00;60434.72;5003327;28;20717;-68
2022/11/17 10:34:35;;;;;;;10.83;9.37;;;;;;;-148.82;100.00;60434.72;4983557;28;20528;-67
2022/11/17 10:37:24;;;;;;;10.03;9.03;;;;;;;-148.82;100.00;60434.72;5006408;28;20429;-68
2022/11/17 10:40:09;;;;;;;14.53;12.83;;;;;;;-148.82;100.00;60434.72;5005258;28;20681;-66
2022/11/17 10:42:38;;;;;;;10.03;9.13;;;;;;;-148.82;100.00;60434.72;4979180;28;20281;-67
2022/11/17 10:45:16;;;;;;;10.50;9.40;;;;;;;-148.82;100.00;60434.72;4955480;28;20677;-68
2022/11/17 10:47:45;;;;;;;10.90;9.73;;;;;;;-148.82;100.00;60434.72;4953222;28;20221;-66
2022/11/17 10:50:18;;;;;;;11.20;10.10;;;;;;;-148.82;100.00;60434.72;5004856;28;20235;-66
2022/11/17 10:52:47;;;;;;;11.47;10.13;;;;;;;-148.82;100.00;60434.72;5007056;28;20475;-66
2022/11/17 10:55:26;;;;;;;11.17;9.97;;;;;;;-148.82;100.00;60434.72;4979293;28;20664;-68
2022/11/17 10:57:57;;;;;;;11.40;10.30;;;;;;;-148.82;100.00;60434.72;5008765;28;20385;-70
2022/11/17 11:00:30;;;;;;;11.23;10.10;;;;;;;-148.82;100.00;60434.72;4978293;28;20222;-68
2022/11/17 11:03:18;;;;;;;11.70;10.50;;;;;;;-148.82;100.00;60434.72;4958256;28;20214;-68
2022/11/17 11:06:05;;;;;;;11.77;10.50;;;;;;;-148.82;100.00;60434.72;5008854;28;20203;-68
2022/11/17 11:08:46;;;;;;;12.67;11.30;;;;;;;-148.82;100.00;60434.72;5007023;28;20366;-68
2022/11/17 11:11:21;;;;;;;13.67;11.20;;;;;;;-148.82;100.00;60434.72;5004975;28;20730;-68
2022/11/17 11:13:55;;;;;;;13.10;11.77;;;;;;;-148.82;100.00;60434.72;5007418;28;20226;-67
2022/11/17 11:16:25;;;;;;;11.93;10.73;;;;;;;-148.82;100.00;60434.72;4979702;28;20215;-67
2022/11/17 11:18:54;;;;;;;14.40;11.13;;;;;;;-148.82;100.00;60434.72;4960683;28;20222;-69
2022/11/17 11:21:38;;;;;;;12.70;11.50;;;;;;;-148.82;100.00;60434.72;5006186;28;20570;-68
2022/11/17 11:24:13;;;;;;;12.33;11.13;;;;;;;-148.82;100.00;60434.72;5010632;28;20333;-68
2022/11/17 11:26:47;;;;;;;15.27;12.17;;;;;;;-148.82;100.00;60434.72;5011863;28;20221;-68
2022/11/17 11:29:25;;;;;;;13.43;12.13;;;;;;;-148.82;100.00;60434.72;5007657;28;20216;-68
2022/11/17 11:32:05;;;;;;;12.23;10.93;;;;;;;-148.82;100.00;60434.72;4987006;28;20246;-68
2022/11/17 11:35:03;;;;;;;18.17;15.30;;;;;;;-148.82;100.00;60434.72;4961326;28;20270;-67
2022/11/17 11:37:37;;;;;;;14.37;12.23;;;;;;;-148.82;100.00;60434.72;5009699;28;20293;-68
2022/11/17 11:40:15;;;;;;;14.07;12.60;;;;;;;-148.82;100.00;60434.72;5009361;28;20833;-68
2022/11/17 11:42:52;;;;;;;14.30;12.80;;;;;;;-148.82;100.00;60434.72;5012696;28;20644;-67